Time;durP1;ratioP1;P1;durP2;ratioP2;P2;SDS_P1;SDS_P2;PMS_P1;PMS_P2;Temp;Humidity;BMP_temperature;BMP_pressure;BME280_temperature;BME280_humidity;BME280_pressure;Samples;Min_cycle;Max_cycle;Signal;HPM_P1;HPM_P2
2023/08/27 00:00:40;;;;;;;16.13;11.02;;;;;;;14.56;100.00;100903.22;5017225;28;20083;-72
2023/08/27 00:03:06;;;;;;;16.23;11.00;;;;;;;14.49;100.00;100900.97;5034657;28;20018;-74
2023/08/27 00:05:31;;;;;;;16.45;10.70;;;;;;;14.46;100.00;100896.06;5033712;28;20384;-74
2023/08/27 00:07:58;;;;;;;14.60;10.52;;;;;;;14.43;100.00;100891.97;5034589;28;20087;-73
2023/08/27 00:10:23;;;;;;;15.43;10.80;;;;;;;14.46;100.00;100884.94;5034321;28;20042;-73
2023/08/27 00:12:48;;;;;;;14.20;10.60;;;;;;;14.44;100.00;100888.06;5034707;28;20499;-72
2023/08/27 00:15:14;;;;;;;15.98;11.02;;;;;;;14.47;100.00;100881.81;5035214;28;20025;-72
2023/08/27 00:17:39;;;;;;;18.27;11.20;;;;;;;14.47;100.00;100872.66;5034096;28;20389;-73
2023/08/27 00:20:10;;;;;;;17.65;11.40;;;;;;;14.49;100.00;100878.72;5034284;28;20465;-72
2023/08/27 00:22:37;;;;;;;16.42;11.10;;;;;;;14.44;100.00;100870.53;5030720;28;20104;-72
2023/08/27 00:25:03;;;;;;;15.65;11.13;;;;;;;14.45;100.00;100869.38;5021366;28;20116;-72
2023/08/27 00:27:28;;;;;;;16.75;11.10;;;;;;;14.43;100.00;100854.97;5034338;28;20029;-72
2023/08/27 00:29:53;;;;;;;16.30;10.77;;;;;;;14.40;100.00;100855.66;5034265;28;20021;-72
2023/08/27 00:32:19;;;;;;;16.88;11.00;;;;;;;14.38;100.00;100871.84;5034143;28;20037;-72
2023/08/27 00:34:44;;;;;;;14.82;10.80;;;;;;;14.37;100.00;100851.53;5034106;28;20108;-72
2023/08/27 00:37:09;;;;;;;15.35;10.65;;;;;;;14.30;100.00;100835.38;5034227;28;20388;-72
2023/08/27 00:39:36;;;;;;;15.07;10.52;;;;;;;14.29;100.00;100830.13;5033802;28;20140;-72
2023/08/27 00:42:04;;;;;;;16.02;10.98;;;;;;;14.24;100.00;100814.44;5032607;28;20036;-72
2023/08/27 00:44:30;;;;;;;14.75;10.57;;;;;;;14.24;100.00;100806.06;5033864;28;20087;-72
2023/08/27 00:46:56;;;;;;;16.35;10.90;;;;;;;14.26;100.00;100806.56;5034035;28;20038;-71
2023/08/27 00:49:21;;;;;;;16.38;10.80;;;;;;;14.30;100.00;100803.94;5033731;28;20029;-71
2023/08/27 00:51:47;;;;;;;14.00;10.52;;;;;;;14.33;100.00;100806.88;5033611;28;20053;-72
2023/08/27 00:54:13;;;;;;;16.10;10.70;;;;;;;14.33;100.00;100795.72;5023889;28;20046;-71
2023/08/27 00:56:44;;;;;;;16.58;11.20;;;;;;;14.30;100.00;100795.59;5014364;28;20036;-71
2023/08/27 00:59:10;;;;;;;16.05;11.00;;;;;;;14.31;100.00;100803.59;5012816;28;20029;-72
2023/08/27 01:01:37;;;;;;;16.65;11.00;;;;;;;14.26;100.00;100789.88;5026865;28;20022;-74
2023/08/27 01:04:03;;;;;;;15.32;11.23;;;;;;;14.28;100.00;100798.72;5033476;28;20444;-72
2023/08/27 01:06:28;;;;;;;16.05;11.20;;;;;;;14.22;100.00;100793.66;5033151;28;20029;-71
2023/08/27 01:09:06;;;;;;;15.13;11.00;;;;;;;14.16;100.00;100793.00;5033236;28;20030;-72
2023/08/27 01:11:59;;;;;;;15.88;10.98;;;;;;;14.13;100.00;100799.22;5031760;28;20104;-71
2023/08/27 01:14:29;;;;;;;15.55;10.75;;;;;;;14.04;100.00;100790.94;5033462;28;20042;-71
2023/08/27 01:16:58;;;;;;;17.25;11.18;;;;;;;14.00;100.00;100790.78;5033099;28;20040;-72
2023/08/27 01:19:24;;;;;;;15.10;10.82;;;;;;;13.96;100.00;100789.00;5033281;28;20041;-73
2023/08/27 01:21:49;;;;;;;16.90;11.00;;;;;;;13.89;100.00;100784.72;5033189;28;20036;-71
2023/08/27 01:24:15;;;;;;;15.50;10.85;;;;;;;13.90;100.00;100782.78;5024470;28;20037;-72
2023/08/27 01:26:49;;;;;;;16.02;10.95;;;;;;;13.86;100.00;100782.63;5031946;28;20108;-73
2023/08/27 01:29:36;;;;;;;17.10;11.65;;;;;;;13.76;100.00;100782.13;5033120;28;20030;-71
2023/08/27 01:32:28;;;;;;;16.88;11.30;;;;;;;13.69;100.00;100779.88;5033228;28;20026;-72
2023/08/27 01:34:54;;;;;;;15.98;11.52;;;;;;;13.57;100.00;100769.41;5035856;28;20172;-72
2023/08/27 01:37:20;;;;;;;16.40;11.35;;;;;;;13.55;100.00;100791.19;5039049;28;20075;-73
2023/08/27 01:39:45;;;;;;;17.08;11.82;;;;;;;13.50;100.00;100782.97;5040184;28;20057;-73
2023/08/27 01:42:12;;;;;;;16.30;11.52;;;;;;;13.49;100.00;100782.19;5031052;28;20068;-72
2023/08/27 01:44:37;;;;;;;17.13;11.10;;;;;;;13.41;100.00;100788.56;5033575;28;20032;-72
2023/08/27 01:47:03;;;;;;;15.68;11.13;;;;;;;13.37;100.00;100781.97;5033572;28;20029;-73
2023/08/27 01:49:29;;;;;;;16.38;11.35;;;;;;;13.31;100.00;100788.84;5033366;28;20029;-73
2023/08/27 01:51:54;;;;;;;15.98;11.23;;;;;;;13.24;100.00;100790.13;5033540;28;20409;-72
2023/08/27 01:54:20;;;;;;;16.13;11.43;;;;;;;13.22;100.00;100788.84;5025064;28;20038;-72
2023/08/27 01:56:46;;;;;;;17.38;11.63;;;;;;;13.18;100.00;100774.78;5030026;28;20042;-72
2023/08/27 01:59:11;;;;;;;17.08;11.43;;;;;;;13.17;100.00;100773.16;5030131;28;20021;-71
2023/08/27 02:01:36;;;;;;;17.10;11.25;;;;;;;13.16;100.00;100771.50;5033146;28;20125;-73
2023/08/27 02:04:03;;;;;;;16.40;11.52;;;;;;;13.15;100.00;100763.50;5033212;28;20515;-72
2023/08/27 02:06:29;;;;;;;16.35;11.18;;;;;;;13.14;100.00;100759.91;5033437;28;20033;-73
2023/08/27 02:08:55;;;;;;;16.60;11.57;;;;;;;13.16;100.00;100767.94;5038341;28;20029;-71
2023/08/27 02:11:20;;;;;;;16.67;11.60;;;;;;;13.21;100.00;100768.59;5039995;28;20037;-73
2023/08/27 02:13:46;;;;;;;17.70;11.32;;;;;;;13.19;100.00;100762.53;5043768;28;20026;-72
2023/08/27 02:16:11;;;;;;;16.05;11.18;;;;;;;13.24;100.00;100761.56;5037864;28;20033;-72
2023/08/27 02:18:36;;;;;;;16.20;11.50;;;;;;;13.22;100.00;100759.13;5023883;28;20030;-72
2023/08/27 02:21:02;;;;;;;16.35;11.30;;;;;;;13.25;100.00;100758.44;5028827;28;20078;-73
2023/08/27 02:23:27;;;;;;;16.10;11.40;;;;;;;13.30;100.00;100763.00;5036141;28;20030;-72
2023/08/27 02:25:53;;;;;;;16.13;11.18;;;;;;;13.32;100.00;100766.28;5036151;28;20033;-69
2023/08/27 02:28:19;;;;;;;17.17;11.13;;;;;;;13.36;100.00;100764.50;5035587;28;20030;-71
2023/08/27 02:30:54;;;;;;;17.20;11.25;;;;;;;13.37;100.00;100762.53;5022653;28;20104;-74
2023/08/27 02:33:20;;;;;;;16.50;11.38;;;;;;;13.37;100.00;100760.56;5021225;28;20026;-73
2023/08/27 02:35:45;;;;;;;15.85;11.18;;;;;;;13.38;100.00;100767.75;5024205;28;20083;-73
2023/08/27 02:38:10;;;;;;;16.83;11.73;;;;;;;13.38;100.00;100766.94;5034052;28;20119;-73
2023/08/27 02:40:36;;;;;;;16.30;11.57;;;;;;;13.38;100.00;100770.53;5024622;28;20133;-72
2023/08/27 02:43:03;;;;;;;17.70;11.73;;;;;;;13.43;100.00;100779.88;5034549;28;20056;-71
2023/08/27 02:45:28;;;;;;;17.15;11.85;;;;;;;13.41;100.00;100780.22;5046731;28;20090;-70
2023/08/27 02:47:54;;;;;;;19.02;12.02;;;;;;;13.44;100.00;100787.88;5050868;28;20037;-70
2023/08/27 02:50:19;;;;;;;18.00;12.20;;;;;;;13.39;100.00;100779.72;5041040;28;20037;-69
2023/08/27 02:52:44;;;;;;;17.75;12.32;;;;;;;13.41;100.00;100775.47;5033711;28;20052;-70
2023/08/27 02:55:10;;;;;;;17.77;12.40;;;;;;;13.47;100.00;100778.91;5022673;28;20029;-70
2023/08/27 02:57:36;;;;;;;17.63;12.40;;;;;;;13.53;100.00;100777.59;5013305;28;20061;-71
2023/08/27 03:00:03;;;;;;;18.30;12.73;;;;;;;13.53;100.00;100783.16;5013484;28;20091;-71
2023/08/27 03:02:29;;;;;;;18.83;12.95;;;;;;;13.59;100.00;100783.00;5013303;28;20164;-70
2023/08/27 03:04:56;;;;;;;18.13;12.48;;;;;;;13.58;100.00;100773.81;5012044;28;20036;-70
2023/08/27 03:07:22;;;;;;;18.10;12.68;;;;;;;13.58;100.00;100771.03;5012110;28;20050;-70
2023/08/27 03:09:47;;;;;;;19.60;13.02;;;;;;;13.55;100.00;100771.72;5011823;28;20143;-70
2023/08/27 03:12:12;;;;;;;18.63;12.38;;;;;;;13.54;100.00;100772.88;5012031;28;20029;-72
2023/08/27 03:14:38;;;;;;;17.80;11.88;;;;;;;13.54;100.00;100783.97;5023036;28;20112;-71
2023/08/27 03:17:03;;;;;;;18.52;12.23;;;;;;;13.53;100.00;100791.47;5012958;28;20081;-69
2023/08/27 03:19:28;;;;;;;18.52;12.23;;;;;;;13.52;100.00;100787.06;5011771;28;20026;-70
2023/08/27 03:21:54;;;;;;;18.30;12.30;;;;;;;13.49;100.00;100789.69;5012237;28;20118;-70
2023/08/27 03:24:19;;;;;;;18.90;12.05;;;;;;;13.52;100.00;100795.41;5015736;28;20025;-70
2023/08/27 03:26:44;;;;;;;17.67;12.00;;;;;;;13.55;100.00;100775.31;5015210;28;20037;-70
2023/08/27 03:29:10;;;;;;;18.65;12.10;;;;;;;13.57;100.00;100781.34;5015504;28;20125;-70
2023/08/27 03:31:35;;;;;;;18.10;11.40;;;;;;;13.61;100.00;100784.28;5015907;28;20145;-70
2023/08/27 03:34:00;;;;;;;17.92;11.80;;;;;;;13.66;100.00;100788.88;5014304;28;20038;-70
2023/08/27 03:36:26;;;;;;;18.15;11.85;;;;;;;13.66;100.00;100784.09;5018319;28;20060;-70
2023/08/27 03:38:51;;;;;;;18.30;11.80;;;;;;;13.68;100.00;100795.72;5035286;28;20057;-70
2023/08/27 03:41:17;;;;;;;18.55;11.40;;;;;;;13.68;100.00;100783.81;5022444;28;20108;-70
2023/08/27 03:43:42;;;;;;;17.02;11.40;;;;;;;13.67;100.00;100787.72;5019065;28;20076;-69
2023/08/27 03:46:07;;;;;;;17.80;11.45;;;;;;;13.66;100.00;100803.56;5023685;28;20026;-70
2023/08/27 03:48:33;;;;;;;17.23;12.13;;;;;;;13.64;100.00;100802.28;5014867;28;20030;-70
2023/08/27 03:50:58;;;;;;;18.10;12.05;;;;;;;13.60;100.00;100804.09;5015037;28;20053;-70
2023/08/27 03:53:23;;;;;;;18.90;12.45;;;;;;;13.57;100.00;100799.97;5015332;28;20387;-69
2023/08/27 03:55:49;;;;;;;18.70;12.60;;;;;;;13.55;100.00;100789.19;5015266;28;20022;-69
2023/08/27 03:58:15;;;;;;;18.10;12.50;;;;;;;13.53;100.00;100788.69;5026921;28;20052;-69
2023/08/27 04:00:40;;;;;;;18.33;12.10;;;;;;;13.50;100.00;100775.47;5026133;28;20104;-69
2023/08/27 04:03:06;;;;;;;19.30;12.80;;;;;;;13.49;100.00;100768.28;5019620;28;20033;-70
2023/08/27 04:05:31;;;;;;;19.52;12.63;;;;;;;13.47;100.00;100765.00;5014848;28;20032;-69
2023/08/27 04:07:57;;;;;;;19.95;12.45;;;;;;;13.45;100.00;100761.75;5013460;28;20026;-70
2023/08/27 04:10:22;;;;;;;18.25;12.30;;;;;;;13.47;100.00;100758.63;5014863;28;20473;-70
2023/08/27 04:12:47;;;;;;;17.75;12.45;;;;;;;13.44;100.00;100753.75;5014601;28;20097;-69
2023/08/27 04:15:13;;;;;;;18.08;12.35;;;;;;;13.43;100.00;100747.34;5014669;28;20106;-70
2023/08/27 04:17:38;;;;;;;16.95;12.00;;;;;;;13.41;100.00;100744.09;5014453;28;20037;-69
2023/08/27 04:20:04;;;;;;;19.05;12.70;;;;;;;13.41;100.00;100735.78;5014650;28;20034;-69
2023/08/27 04:22:29;;;;;;;18.75;12.20;;;;;;;13.42;100.00;100745.72;5023758;28;20037;-69
2023/08/27 04:24:55;;;;;;;17.95;12.75;;;;;;;13.39;100.00;100749.97;5034353;28;20028;-68
2023/08/27 04:27:20;;;;;;;19.10;12.20;;;;;;;13.40;100.00;100753.59;5026515;28;20109;-69
2023/08/27 04:29:46;;;;;;;17.52;12.05;;;;;;;13.38;100.00;100759.41;5021083;28;20103;-69
2023/08/27 04:32:11;;;;;;;18.83;12.40;;;;;;;13.36;100.00;100758.13;5026441;28;20045;-69
2023/08/27 04:34:36;;;;;;;19.10;12.52;;;;;;;13.32;100.00;100762.72;5013861;28;20180;-69
2023/08/27 04:37:03;;;;;;;18.52;12.93;;;;;;;13.31;100.00;100764.66;5018526;28;20025;-69
2023/08/27 04:39:29;;;;;;;18.83;12.75;;;;;;;13.33;100.00;100758.75;5034111;28;20041;-68
2023/08/27 04:41:54;;;;;;;20.25;12.93;;;;;;;13.31;100.00;100767.44;5033723;28;20484;-69
2023/08/27 04:44:20;;;;;;;18.30;12.52;;;;;;;13.27;100.00;100752.56;5024190;28;20105;-68
2023/08/27 04:46:45;;;;;;;18.90;12.68;;;;;;;13.25;100.00;100754.84;5029694;28;20112;-68
2023/08/27 04:49:10;;;;;;;19.00;12.82;;;;;;;13.23;100.00;100755.16;5033442;28;20048;-68
2023/08/27 04:51:36;;;;;;;19.17;13.30;;;;;;;13.21;100.00;100763.03;5032913;28;20152;-68
2023/08/27 04:54:02;;;;;;;18.75;12.80;;;;;;;13.23;100.00;100765.47;5027401;28;20091;-68
2023/08/27 04:56:28;;;;;;;19.42;12.98;;;;;;;13.24;100.00;100761.56;5022401;28;20068;-69
2023/08/27 04:58:53;;;;;;;18.60;13.05;;;;;;;13.22;100.00;100767.44;5031637;28;20446;-68
2023/08/27 05:01:19;;;;;;;19.08;12.98;;;;;;;13.22;100.00;100770.22;5033378;28;20025;-70
2023/08/27 05:03:44;;;;;;;19.42;13.45;;;;;;;13.23;100.00;100766.28;5015054;28;20041;-69
2023/08/27 05:06:09;;;;;;;18.52;12.93;;;;;;;13.24;100.00;100767.91;5013440;28;20030;-69
2023/08/27 05:08:35;;;;;;;18.20;12.32;;;;;;;13.25;100.00;100765.97;5016354;28;20556;-69
2023/08/27 05:11:00;;;;;;;18.52;12.18;;;;;;;13.25;100.00;100771.53;5024667;28;20158;-68
2023/08/27 05:13:25;;;;;;;17.45;11.63;;;;;;;13.24;100.00;100776.25;5019329;28;20025;-69
2023/08/27 05:15:51;;;;;;;18.80;12.10;;;;;;;13.23;100.00;100788.50;5013540;28;20038;-69
2023/08/27 05:18:16;;;;;;;18.20;11.88;;;;;;;13.24;100.00;100781.00;5025614;28;20026;-69
2023/08/27 05:20:42;;;;;;;17.58;11.45;;;;;;;13.25;100.00;100783.44;5033065;28;20029;-69
2023/08/27 05:23:07;;;;;;;18.20;12.05;;;;;;;13.27;100.00;100785.91;5032981;28;20370;-69
2023/08/27 05:25:34;;;;;;;18.00;11.65;;;;;;;13.29;100.00;100777.25;5033137;28;20040;-69
2023/08/27 05:28:00;;;;;;;18.98;12.05;;;;;;;13.25;100.00;100777.09;5031011;28;20036;-68
2023/08/27 05:30:26;;;;;;;19.30;11.73;;;;;;;13.22;100.00;100769.38;5032828;28;20030;-69
2023/08/27 05:32:53;;;;;;;17.52;11.32;;;;;;;13.24;100.00;100773.47;5032687;28;20504;-69
2023/08/27 05:35:18;;;;;;;18.38;11.65;;;;;;;13.24;100.00;100776.25;5024438;28;20070;-69
2023/08/27 05:37:44;;;;;;;18.60;11.50;;;;;;;13.25;100.00;100769.56;5023597;28;20441;-69
2023/08/27 05:40:09;;;;;;;18.02;11.45;;;;;;;13.27;100.00;100772.03;5025820;28;20080;-69
2023/08/27 05:42:35;;;;;;;19.15;11.60;;;;;;;13.34;100.00;100777.91;5024937;28;20381;-69
2023/08/27 05:45:00;;;;;;;19.13;11.82;;;;;;;13.35;100.00;100779.53;5031476;28;20477;-68
2023/08/27 05:47:28;;;;;;;19.48;11.40;;;;;;;13.42;100.00;100781.84;5031911;28;20452;-67
2023/08/27 05:49:54;;;;;;;17.85;11.70;;;;;;;13.47;100.00;100778.91;5022442;28;20026;-68
2023/08/27 05:52:20;;;;;;;17.80;11.73;;;;;;;13.50;100.00;100769.94;5019837;28;20151;-68
2023/08/27 05:54:45;;;;;;;18.30;11.35;;;;;;;13.56;100.00;100771.38;5027504;28;20029;-68
2023/08/27 05:57:10;;;;;;;18.50;11.30;;;;;;;13.57;100.00;100764.69;5032146;28;20060;-67
2023/08/27 05:59:36;;;;;;;17.27;11.15;;;;;;;13.64;100.00;100774.47;5032402;28;20485;-69
2023/08/27 06:02:02;;;;;;;18.23;11.80;;;;;;;13.67;100.00;100773.81;5032231;28;20099;-68
2023/08/27 06:04:28;;;;;;;19.10;11.15;;;;;;;13.69;100.00;100777.09;5032032;28;20029;-68
2023/08/27 06:06:53;;;;;;;17.80;11.50;;;;;;;13.70;100.00;100773.16;5032241;28;20022;-69
2023/08/27 06:09:18;;;;;;;18.58;11.80;;;;;;;13.76;100.00;100779.34;5028798;28;20034;-68
2023/08/27 06:11:44;;;;;;;17.95;11.80;;;;;;;13.73;100.00;100767.78;5012478;28;20033;-68
2023/08/27 06:14:09;;;;;;;19.60;11.40;;;;;;;13.75;100.00;100761.88;5028817;28;20041;-69
2023/08/27 06:16:34;;;;;;;17.88;11.25;;;;;;;13.78;100.00;100768.72;5032231;28;20055;-68
2023/08/27 06:19:00;;;;;;;17.17;11.10;;;;;;;13.80;100.00;100758.91;5025565;28;20504;-68
2023/08/27 06:21:25;;;;;;;18.52;11.68;;;;;;;13.83;100.00;100761.03;5019007;28;20034;-69
2023/08/27 06:23:51;;;;;;;19.20;12.23;;;;;;;13.85;100.00;100763.47;5020939;28;20040;-69
2023/08/27 06:26:16;;;;;;;18.83;12.43;;;;;;;13.90;100.00;100757.75;5025946;28;20021;-70
2023/08/27 06:28:41;;;;;;;18.55;11.85;;;;;;;13.99;100.00;100758.53;5032088;28;20361;-69
2023/08/27 06:31:07;;;;;;;18.70;11.40;;;;;;;14.08;100.00;100752.94;5031895;28;20025;-69
2023/08/27 06:33:32;;;;;;;19.05;11.40;;;;;;;14.09;100.00;100746.22;5021487;28;20018;-69
2023/08/27 06:35:58;;;;;;;19.50;11.73;;;;;;;14.10;100.00;100752.63;5012234;28;20022;-69
2023/08/27 06:38:24;;;;;;;17.23;11.68;;;;;;;14.09;100.00;100757.34;5021282;28;20053;-69
2023/08/27 06:40:49;;;;;;;19.40;11.80;;;;;;;14.08;100.00;100749.34;5025882;28;20065;-68
2023/08/27 06:43:15;;;;;;;19.73;11.90;;;;;;;14.11;100.00;100754.25;5018451;28;20038;-69
2023/08/27 06:45:40;;;;;;;18.35;11.40;;;;;;;14.11;100.00;100755.06;5017882;28;20042;-69
2023/08/27 06:48:05;;;;;;;19.25;11.88;;;;;;;14.13;100.00;100755.56;5025715;28;20523;-68
2023/08/27 06:50:31;;;;;;;20.35;11.90;;;;;;;14.19;100.00;100754.22;5011681;28;20029;-67
2023/08/27 06:52:56;;;;;;;18.85;11.60;;;;;;;14.25;100.00;100751.25;5017104;28;20128;-68
2023/08/27 06:55:22;;;;;;;18.60;11.98;;;;;;;14.26;100.00;100750.13;5020847;28;20026;-69
2023/08/27 06:57:47;;;;;;;18.30;12.35;;;;;;;14.32;100.00;100752.34;5011265;28;20028;-69
2023/08/27 07:00:13;;;;;;;18.08;12.10;;;;;;;14.35;100.00;100753.69;5017080;28;20459;-68
2023/08/27 07:02:38;;;;;;;18.92;12.27;;;;;;;14.39;100.00;100757.41;5020633;28;20038;-69
2023/08/27 07:05:11;;;;;;;19.73;12.35;;;;;;;14.46;100.00;100756.91;5023820;28;20021;-69
2023/08/27 07:07:37;;;;;;;17.80;12.00;;;;;;;14.53;100.00;100759.16;5021568;28;20034;-69
2023/08/27 07:10:04;;;;;;;18.60;12.15;;;;;;;14.54;100.00;100753.25;5018090;28;20057;-69
2023/08/27 07:12:35;;;;;;;18.33;12.45;;;;;;;14.59;100.00;100758.63;5026289;28;20044;-69
2023/08/27 07:15:01;;;;;;;18.17;12.35;;;;;;;14.68;100.00;100763.38;5013951;28;20693;-69
2023/08/27 07:17:27;;;;;;;19.58;12.13;;;;;;;14.74;100.00;100756.44;5022748;28;20117;-69
2023/08/27 07:19:53;;;;;;;18.92;11.75;;;;;;;14.78;100.00;100763.78;5021354;28;20084;-67
2023/08/27 07:22:18;;;;;;;19.30;12.30;;;;;;;14.84;100.00;100766.38;5027419;28;20116;-68
2023/08/27 07:24:43;;;;;;;20.77;13.13;;;;;;;14.86;100.00;100758.50;5025167;28;20041;-70
2023/08/27 07:27:09;;;;;;;19.10;12.38;;;;;;;14.84;100.00;100756.06;5030885;28;20444;-64
2023/08/27 07:29:35;;;;;;;18.50;12.10;;;;;;;14.88;100.00;100759.78;5030514;28;20030;-69
2023/08/27 07:32:01;;;;;;;19.75;12.10;;;;;;;14.97;100.00;100754.97;5030101;28;20104;-69
2023/08/27 07:34:26;;;;;;;20.20;12.32;;;;;;;15.07;100.00;100764.91;5016099;28;20034;-69
2023/08/27 07:36:53;;;;;;;19.13;12.18;;;;;;;15.11;100.00;100765.84;5010262;28;20034;-70
2023/08/27 07:39:19;;;;;;;19.83;12.70;;;;;;;15.12;100.00;100759.13;5016151;28;20034;-67
2023/08/27 07:41:44;;;;;;;19.00;12.48;;;;;;;15.21;100.00;100769.41;5019952;28;20030;-68
2023/08/27 07:44:09;;;;;;;19.30;13.07;;;;;;;15.29;100.00;100758.19;5015402;28;20481;-68
2023/08/27 07:46:35;;;;;;;21.92;12.90;;;;;;;15.39;100.00;100756.13;5018974;28;20025;-69
2023/08/27 07:49:00;;;;;;;19.77;13.32;;;;;;;15.49;100.00;100763.28;5020437;28;20500;-68
2023/08/27 07:51:25;;;;;;;20.83;13.13;;;;;;;15.55;100.00;100756.31;5021985;28;20509;-69
2023/08/27 07:53:51;;;;;;;21.42;13.55;;;;;;;15.63;100.00;100761.00;5020249;28;20125;-69
2023/08/27 07:56:16;;;;;;;20.52;13.20;;;;;;;15.70;100.00;100752.09;5020168;28;20030;-69
2023/08/27 07:58:42;;;;;;;22.77;13.27;;;;;;;15.78;100.00;100751.19;5024918;28;20041;-68
2023/08/27 08:01:07;;;;;;;21.73;13.55;;;;;;;15.86;100.00;100752.28;5024767;28;20156;-68
2023/08/27 08:03:33;;;;;;;21.80;13.32;;;;;;;15.92;100.00;100753.69;5018842;28;20148;-69
2023/08/27 08:05:58;;;;;;;20.40;13.00;;;;;;;16.07;100.00;100755.00;5009355;28;20046;-69
2023/08/27 08:08:23;;;;;;;20.80;12.60;;;;;;;16.19;100.00;100748.63;5011137;28;20026;-67
2023/08/27 08:10:49;;;;;;;18.80;12.65;;;;;;;16.31;100.00;100754.22;5033126;28;20117;-68
2023/08/27 08:13:14;;;;;;;19.85;12.73;;;;;;;16.33;100.00;100751.06;5031019;28;20034;-69
2023/08/27 08:15:39;;;;;;;19.85;12.40;;;;;;;16.40;100.00;100742.13;5013829;28;20053;-68
2023/08/27 08:18:05;;;;;;;19.33;12.82;;;;;;;16.51;100.00;100743.28;5013741;28;20034;-68
2023/08/27 08:20:30;;;;;;;19.08;12.45;;;;;;;16.55;100.00;100751.78;5017605;28;20049;-70
2023/08/27 08:22:55;;;;;;;21.10;12.57;;;;;;;16.68;100.00;100750.59;5026377;28;20025;-69
2023/08/27 08:25:25;;;;;;;18.52;12.27;;;;;;;16.74;100.00;100752.00;5021398;28;20551;-69
2023/08/27 08:27:50;;;;;;;20.17;12.23;;;;;;;16.77;100.00;100756.88;5028326;28;20029;-69
2023/08/27 08:30:15;;;;;;;20.17;12.20;;;;;;;16.79;100.00;100748.97;5013687;28;20033;-69
2023/08/27 08:32:41;;;;;;;17.95;11.10;;;;;;;16.81;100.00;100757.00;5019928;28;20044;-68
2023/08/27 08:35:07;;;;;;;18.75;11.23;;;;;;;16.73;100.00;100771.88;5031680;28;20044;-68
2023/08/27 08:37:32;;;;;;;19.83;11.93;;;;;;;16.69;100.00;100771.78;5013409;28;20113;-68
2023/08/27 08:39:57;;;;;;;19.10;11.43;;;;;;;16.79;100.00;100762.94;5018611;28;20132;-70
2023/08/27 08:42:23;;;;;;;20.65;12.15;;;;;;;16.96;100.00;100767.47;5022947;28;20477;-70
2023/08/27 08:44:58;;;;;;;19.73;11.77;;;;;;;17.19;100.00;100764.19;5022818;28;20392;-70
2023/08/27 08:47:24;;;;;;;18.90;12.30;;;;;;;17.33;100.00;100768.56;5022213;28;20316;-69
2023/08/27 08:49:54;;;;;;;18.38;11.93;;;;;;;17.39;100.00;100770.75;5026914;28;20120;-69
2023/08/27 08:52:24;;;;;;;19.65;11.93;;;;;;;17.42;100.00;100769.22;5032672;28;20132;-69
2023/08/27 08:54:53;;;;;;;18.42;11.75;;;;;;;17.33;100.00;100743.38;5022229;28;20543;-69
2023/08/27 08:57:19;;;;;;;18.88;12.10;;;;;;;17.65;100.00;100766.69;5024105;28;20026;-69
2023/08/27 08:59:47;;;;;;;20.63;11.63;;;;;;;17.85;100.00;100762.06;5032934;28;20075;-69
2023/08/27 09:02:13;;;;;;;17.35;11.18;;;;;;;18.03;99.55;100762.53;5023768;28;20038;-70
2023/08/27 09:04:41;;;;;;;16.25;10.00;;;;;;;18.06;95.95;100758.22;5022804;28;20106;-69
2023/08/27 09:07:06;;;;;;;17.45;10.73;;;;;;;18.07;95.97;100754.25;5015116;28;20812;-68
2023/08/27 09:09:32;;;;;;;17.35;11.35;;;;;;;17.99;96.75;100744.88;5020547;28;20136;-70
2023/08/27 09:12:01;;;;;;;19.80;11.55;;;;;;;17.94;97.90;100750.69;5020777;28;20064;-68
2023/08/27 09:14:29;;;;;;;18.73;11.05;;;;;;;18.00;94.51;100743.66;5030160;28;20034;-70
2023/08/27 09:16:54;;;;;;;17.60;10.45;;;;;;;18.06;93.56;100747.00;5031821;28;20048;-70
2023/08/27 09:19:20;;;;;;;18.27;11.10;;;;;;;18.13;94.98;100743.59;5015693;28;20629;-68
2023/08/27 09:21:46;;;;;;;17.45;10.85;;;;;;;18.01;92.82;100742.50;5029713;28;20034;-69
2023/08/27 09:24:11;;;;;;;15.95;9.48;;;;;;;17.90;92.21;100736.59;5020445;28;20112;-68
2023/08/27 09:26:38;;;;;;;16.05;10.13;;;;;;;17.90;93.29;100731.00;5023100;28;20104;-68
2023/08/27 09:29:07;;;;;;;15.27;9.70;;;;;;;17.93;90.33;100723.88;5020512;28;20029;-69
2023/08/27 09:31:41;;;;;;;15.68;9.10;;;;;;;17.98;89.41;100737.63;5028030;28;20369;-70
2023/08/27 09:34:08;;;;;;;16.85;9.77;;;;;;;17.93;89.54;100729.47;5023632;28;20040;-68
2023/08/27 09:36:37;;;;;;;16.02;8.90;;;;;;;17.96;88.49;100723.19;5031570;28;20021;-69
2023/08/27 09:39:08;;;;;;;16.55;10.23;;;;;;;17.78;89.94;100703.09;5031662;28;20044;-68
2023/08/27 09:41:46;;;;;;;16.17;9.40;;;;;;;18.06;90.29;100719.03;5024305;28;20032;-71
2023/08/27 09:44:13;;;;;;;17.98;9.60;;;;;;;18.16;87.71;100712.88;5027745;28;20029;-73
2023/08/27 09:46:42;;;;;;;15.48;9.50;;;;;;;18.29;86.35;100707.19;5026441;28;20038;-70
2023/08/27 09:49:09;;;;;;;16.65;9.85;;;;;;;18.34;87.70;100713.34;5031127;28;20048;-68
2023/08/27 09:51:36;;;;;;;17.73;9.50;;;;;;;18.40;85.75;100706.28;5031265;28;20052;-69
2023/08/27 09:54:20;;;;;;;17.20;9.95;;;;;;;18.58;88.84;100705.09;5028325;28;20026;-69
2023/08/27 09:56:48;;;;;;;18.25;10.18;;;;;;;18.72;82.61;100702.59;5021738;28;20068;-68
2023/08/27 09:59:16;;;;;;;15.82;9.65;;;;;;;18.75;82.90;100706.69;5020615;28;20041;-69
2023/08/27 10:01:46;;;;;;;15.85;9.68;;;;;;;18.81;82.20;100703.19;5021077;28;20018;-69
2023/08/27 10:04:11;;;;;;;15.68;9.40;;;;;;;18.97;81.35;100703.19;5031207;28;20033;-69
2023/08/27 10:06:37;;;;;;;15.95;9.30;;;;;;;19.14;81.35;100698.31;5021011;28;20045;-70
2023/08/27 10:09:03;;;;;;;14.57;9.40;;;;;;;19.26;80.26;100706.59;5026660;28;20378;-69
2023/08/27 10:11:29;;;;;;;15.55;9.40;;;;;;;19.31;79.87;100705.47;5023082;28;20030;-70
2023/08/27 10:13:57;;;;;;;13.45;8.77;;;;;;;19.28;77.72;100709.00;5022677;28;20032;-69
2023/08/27 10:16:23;;;;;;;15.88;9.48;;;;;;;19.39;80.21;100703.63;5031096;28;20029;-68
2023/08/27 10:18:48;;;;;;;17.55;8.55;;;;;;;19.51;78.13;100714.69;5016909;28;20088;-66
2023/08/27 10:21:14;;;;;;;14.13;9.30;;;;;;;19.56;77.26;100717.19;5028764;28;20104;-68
2023/08/27 10:23:40;;;;;;;20.42;10.73;;;;;;;19.69;76.32;100712.22;5030765;28;20037;-68
2023/08/27 10:26:06;;;;;;;17.90;9.10;;;;;;;19.75;77.95;100710.72;5030613;28;20090;-69
2023/08/27 10:28:35;;;;;;;16.52;9.68;;;;;;;19.73;79.32;100712.28;5030769;28;20021;-67
2023/08/27 10:31:05;;;;;;;16.58;9.57;;;;;;;19.77;79.35;100708.38;5030399;28;20025;-69
2023/08/27 10:33:31;;;;;;;16.15;9.18;;;;;;;19.95;77.31;100702.28;5027524;28;20397;-67
2023/08/27 10:36:01;;;;;;;15.52;8.93;;;;;;;20.07;78.00;100704.91;5023223;28;20053;-68
2023/08/27 10:38:29;;;;;;;15.55;9.27;;;;;;;20.06;73.51;100694.06;5025264;28;20037;-70
2023/08/27 10:40:54;;;;;;;15.13;9.07;;;;;;;20.18;74.02;100702.28;5016491;28;20229;-69
2023/08/27 10:43:21;;;;;;;15.18;9.52;;;;;;;20.26;72.95;100709.63;5019013;28;20110;-69
2023/08/27 10:45:50;;;;;;;17.08;9.13;;;;;;;20.16;71.91;100701.88;5017958;28;20543;-69
2023/08/27 10:48:23;;;;;;;16.25;9.50;;;;;;;19.88;74.23;100702.16;5024305;28;20057;-69
2023/08/27 10:50:50;;;;;;;;;;;;;;;19.91;75.00;100705.03;5012772;28;20049;-69
2023/08/27 10:53:16;;;;;;;17.55;9.75;;;;;;;19.72;75.78;100717.09;5026627;28;19928;-68
2023/08/27 10:55:48;;;;;;;15.80;9.38;;;;;;;19.69;74.82;100714.25;5021659;28;20497;-69
2023/08/27 10:58:21;;;;;;;15.45;9.60;;;;;;;19.59;74.58;100704.41;5023951;28;20113;-67
2023/08/27 11:01:02;;;;;;;16.48;9.90;;;;;;;19.64;76.40;100702.13;5020910;28;20152;-67